createdAt,value
2017-10-02T00:00:42.318Z,96.49
2017-10-02T00:03:08.561Z,96.09
2017-10-02T00:05:34.806Z,95.60
2017-10-02T00:08:01.240Z,95.37
2017-10-02T00:10:27.481Z,95.86
2017-10-02T00:12:53.751Z,95.88
2017-10-02T00:15:19.988Z,95.87
2017-10-02T00:17:46.360Z,95.64
2017-10-02T00:20:12.635Z,95.57
2017-10-02T00:22:38.885Z,96.39
2017-10-02T00:25:05.113Z,96.33
2017-10-02T00:27:31.487Z,95.50
2017-10-02T00:29:57.735Z,95.21
2017-10-02T00:32:23.966Z,96.20
2017-10-02T00:34:50.232Z,95.79
2017-10-02T00:37:16.496Z,95.10
2017-10-02T00:39:42.760Z,95.78
2017-10-02T00:42:09.013Z,95.54
2017-10-02T00:44:35.261Z,95.41
2017-10-02T00:47:01.508Z,95.14
2017-10-02T00:49:27.781Z,95.33
2017-10-02T00:51:54.008Z,95.64
2017-10-02T00:54:20.244Z,95.60
2017-10-02T00:56:46.492Z,96.06
2017-10-02T00:59:12.866Z,96.36
2017-10-02T01:01:39.109Z,96.55
2017-10-02T01:04:05.349Z,96.62
2017-10-02T01:06:31.585Z,96.33
2017-10-02T01:08:57.826Z,96.21
2017-10-02T01:11:24.062Z,95.78
2017-10-02T01:13:50.441Z,95.71
2017-10-02T01:16:16.674Z,96.54
2017-10-02T01:18:42.911Z,96.50
2017-10-02T01:21:09.308Z,96.17
2017-10-02T01:23:35.536Z,95.93
2017-10-02T01:26:01.776Z,96.70
2017-10-02T01:28:28.019Z,96.45
2017-10-02T01:30:54.262Z,94.75
2017-10-02T01:33:20.494Z,94.42
2017-10-02T01:35:46.740Z,94.83
2017-10-02T01:38:12.988Z,94.04
2017-10-02T01:40:39.218Z,95.30
2017-10-02T01:43:05.448Z,95.01
2017-10-02T01:45:31.686Z,94.84
2017-10-02T01:47:57.926Z,94.83
2017-10-02T01:50:24.174Z,94.74
2017-10-02T01:52:50.439Z,94.34
2017-10-02T01:55:16.664Z,94.37
2017-10-02T01:57:42.907Z,94.00
2017-10-02T02:00:09.206Z,94.32
2017-10-02T02:02:35.437Z,94.93
2017-10-02T02:05:01.660Z,95.28
2017-10-02T02:07:27.918Z,94.97
2017-10-02T02:09:54.147Z,94.15
2017-10-02T02:12:20.368Z,93.65
2017-10-02T02:14:46.636Z,94.07
2017-10-02T02:17:12.857Z,93.51
2017-10-02T02:19:39.089Z,93.84
2017-10-02T02:22:05.362Z,93.99
2017-10-02T02:24:31.597Z,94.44
2017-10-02T02:26:57.852Z,94.49
2017-10-02T02:29:24.128Z,93.85
2017-10-02T02:31:50.357Z,94.57
2017-10-02T02:34:16.595Z,94.49
2017-10-02T02:36:42.897Z,94.28
2017-10-02T02:39:09.133Z,94.33
2017-10-02T02:41:35.349Z,94.13
2017-10-02T02:44:01.628Z,93.99
2017-10-02T02:46:27.862Z,93.68
2017-10-02T02:48:54.088Z,93.62
2017-10-02T02:51:20.405Z,93.02
2017-10-02T02:53:46.629Z,93.33
2017-10-02T02:56:12.865Z,93.94
2017-10-02T02:58:39.144Z,94.11
2017-10-02T03:01:05.372Z,93.79
2017-10-02T03:03:31.592Z,93.76
2017-10-02T03:05:57.983Z,93.82
2017-10-02T03:08:24.222Z,93.63
2017-10-02T03:10:50.449Z,93.70
2017-10-02T03:13:16.717Z,93.09
2017-10-02T03:15:42.945Z,93.74
2017-10-02T03:18:09.299Z,94.48
2017-10-02T03:20:35.567Z,95.10
2017-10-02T03:23:01.787Z,95.42
2017-10-02T03:25:28.026Z,95.54
2017-10-02T03:27:54.297Z,95.38
2017-10-02T03:30:20.534Z,94.43
2017-10-02T03:32:46.753Z,95.40
2017-10-02T03:35:13.041Z,95.66
2017-10-02T03:37:39.276Z,95.86
2017-10-02T03:40:05.511Z,95.26
2017-10-02T03:42:32.009Z,95.44
2017-10-02T03:44:58.220Z,95.20
2017-10-02T03:47:24.433Z,93.86
2017-10-02T03:49:50.683Z,94.39
2017-10-02T03:52:16.968Z,92.96
2017-10-02T03:54:43.208Z,93.17
2017-10-02T03:57:09.471Z,93.63
2017-10-02T03:59:35.698Z,94.72
2017-10-02T04:02:01.931Z,95.53
2017-10-02T04:04:28.207Z,94.98
2017-10-02T04:06:54.442Z,93.74
2017-10-02T04:09:20.680Z,93.32
2017-10-02T04:11:46.950Z,93.42
2017-10-02T04:14:13.180Z,93.62
2017-10-02T04:16:39.447Z,94.08
2017-10-02T04:19:05.728Z,93.75
2017-10-02T04:21:31.955Z,93.88
2017-10-02T04:23:58.188Z,93.57
2017-10-02T04:26:24.555Z,92.71
2017-10-02T04:28:50.792Z,92.43
2017-10-02T04:31:17.033Z,93.06
2017-10-02T04:33:43.317Z,93.15
2017-10-02T04:36:09.550Z,93.61
2017-10-02T04:38:35.788Z,93.62
2017-10-02T04:41:02.063Z,93.07
2017-10-02T04:43:28.288Z,93.04
2017-10-02T04:45:54.524Z,93.58
2017-10-02T04:48:20.849Z,93.25
2017-10-02T04:50:47.106Z,93.47
2017-10-02T04:53:13.329Z,93.57
2017-10-02T04:55:39.610Z,93.25
2017-10-02T04:58:05.931Z,93.61
2017-10-02T05:00:32.164Z,93.62
2017-10-02T05:02:58.429Z,93.13
2017-10-02T05:05:24.666Z,93.54
2017-10-02T05:07:50.892Z,93.05
2017-10-02T05:10:17.279Z,93.48
2017-10-02T05:12:43.522Z,92.98
2017-10-02T05:15:09.759Z,91.89
2017-10-02T05:17:36.042Z,91.83
2017-10-02T05:20:02.271Z,92.07
2017-10-02T05:22:28.537Z,90.70
2017-10-02T05:24:54.884Z,90.56
2017-10-02T05:27:21.136Z,90.38
2017-10-02T05:29:47.359Z,89.97
2017-10-02T05:32:13.615Z,89.54
2017-10-02T05:34:39.858Z,90.18
2017-10-02T05:37:06.107Z,89.96
2017-10-02T05:39:32.437Z,89.91
2017-10-02T05:41:58.662Z,88.82
2017-10-02T05:44:25.043Z,88.08
2017-10-02T05:46:51.339Z,88.20
2017-10-02T05:49:17.589Z,88.60
2017-10-02T05:51:43.833Z,87.72
2017-10-02T05:54:10.112Z,88.34
2017-10-02T05:56:36.344Z,88.02
2017-10-02T05:59:02.572Z,87.83
2017-10-02T06:01:28.869Z,87.21
2017-10-02T06:03:55.130Z,87.51
2017-10-02T06:06:21.357Z,86.68
2017-10-02T06:08:47.622Z,86.78
2017-10-02T06:11:13.846Z,90.14
2017-10-02T06:13:40.065Z,90.11
2017-10-02T06:16:06.336Z,87.13
2017-10-02T06:18:32.677Z,84.37
2017-10-02T06:20:58.915Z,85.05
2017-10-02T06:23:25.190Z,83.76
2017-10-02T06:25:51.406Z,84.34
2017-10-02T06:28:17.624Z,84.08
2017-10-02T06:30:43.896Z,82.81
2017-10-02T06:33:10.122Z,81.79
2017-10-02T06:35:36.332Z,79.52
2017-10-02T06:38:02.605Z,77.41
2017-10-02T06:40:28.840Z,77.09
2017-10-02T06:42:55.187Z,73.73
2017-10-02T06:45:21.452Z,69.45
2017-10-02T06:47:47.687Z,68.27
2017-10-02T06:50:13.910Z,68.52
2017-10-02T06:52:40.200Z,69.60
2017-10-02T06:55:06.433Z,68.30
2017-10-02T06:57:32.661Z,66.83
2017-10-02T06:59:58.918Z,65.26
2017-10-02T07:02:25.139Z,63.68
2017-10-02T07:04:51.460Z,63.33
2017-10-02T07:07:17.718Z,60.39
2017-10-02T07:09:43.956Z,58.52
2017-10-02T07:12:10.176Z,58.80
2017-10-02T07:14:36.440Z,57.04
2017-10-02T07:17:02.680Z,56.13
2017-10-02T07:19:28.976Z,55.94
2017-10-02T07:21:55.271Z,52.14
2017-10-02T07:24:21.496Z,51.96
2017-10-02T07:26:47.739Z,52.78
2017-10-02T07:29:14.012Z,53.77
2017-10-02T07:31:40.242Z,54.17
2017-10-02T07:34:06.481Z,52.17
2017-10-02T07:36:32.762Z,48.77
2017-10-02T07:38:58.988Z,44.36
2017-10-02T07:41:25.280Z,43.61
2017-10-02T07:43:51.552Z,43.52
2017-10-02T07:46:17.778Z,42.84
2017-10-02T07:48:44.006Z,42.83
2017-10-02T07:51:10.258Z,42.48
2017-10-02T07:53:36.491Z,43.41
2017-10-02T07:56:02.722Z,42.45
2017-10-02T07:58:29.016Z,46.73
2017-10-02T08:00:55.272Z,43.71
2017-10-02T08:03:21.490Z,43.29
2017-10-02T08:05:47.750Z,42.62
2017-10-02T08:08:13.977Z,43.54
2017-10-02T08:10:40.208Z,42.17
2017-10-02T08:13:06.478Z,41.98
2017-10-02T08:15:32.740Z,39.24
2017-10-02T08:17:58.968Z,39.65
2017-10-02T08:20:25.228Z,38.66
2017-10-02T08:22:51.463Z,38.28
2017-10-02T08:25:17.714Z,33.94
2017-10-02T08:27:43.991Z,33.02
2017-10-02T08:30:10.224Z,34.17
2017-10-02T08:32:36.442Z,33.27
2017-10-02T08:35:02.707Z,32.97
2017-10-02T08:37:28.972Z,32.29
2017-10-02T08:39:55.210Z,31.54
2017-10-02T08:42:21.395Z,31.21
2017-10-02T08:44:47.574Z,31.01
2017-10-02T08:47:13.750Z,31.46
2017-10-02T08:49:39.921Z,31.29
2017-10-02T08:52:06.108Z,31.99
2017-10-02T08:54:32.289Z,31.84
2017-10-02T08:56:58.488Z,30.96
2017-10-02T08:59:24.663Z,30.86
2017-10-02T09:01:50.833Z,29.98
2017-10-02T09:04:17.019Z,30.12
2017-10-02T09:06:43.208Z,29.44
2017-10-02T09:09:09.403Z,28.71
2017-10-02T09:11:35.713Z,29.82
2017-10-02T09:14:01.891Z,29.79
2017-10-02T09:16:28.084Z,29.76
2017-10-02T09:18:54.293Z,27.69
2017-10-02T09:21:20.617Z,29.54
2017-10-02T09:23:46.809Z,29.37
2017-10-02T09:26:13.038Z,29.18
2017-10-02T09:28:39.226Z,28.48
2017-10-02T09:31:05.397Z,28.04
2017-10-02T09:33:31.627Z,26.80
2017-10-02T09:35:57.807Z,26.33
2017-10-02T09:38:23.979Z,26.77
2017-10-02T09:40:50.252Z,25.17
2017-10-02T09:43:16.422Z,25.04
2017-10-02T09:45:42.598Z,27.20
2017-10-02T09:48:08.813Z,25.88
2017-10-02T09:50:35.001Z,23.90
2017-10-02T09:53:01.185Z,24.84
2017-10-02T09:55:27.409Z,26.14
2017-10-02T09:57:53.592Z,27.37
2017-10-02T10:00:19.771Z,28.20
2017-10-02T10:02:45.993Z,28.87
2017-10-02T10:05:12.170Z,27.81
2017-10-02T10:07:38.343Z,29.16
2017-10-02T10:10:04.564Z,27.84
2017-10-02T10:12:30.729Z,26.69
2017-10-02T10:14:56.902Z,25.93
2017-10-02T10:17:23.106Z,24.52
2017-10-02T10:19:49.267Z,25.71
2017-10-02T10:22:15.438Z,25.40
2017-10-02T10:24:41.641Z,25.54
2017-10-02T10:27:07.812Z,25.29
2017-10-02T10:29:33.992Z,24.53
2017-10-02T10:32:00.269Z,26.23
2017-10-02T10:34:26.452Z,26.58
2017-10-02T10:36:52.614Z,26.42
2017-10-02T10:39:18.832Z,28.27
2017-10-02T10:41:45.015Z,26.45
2017-10-02T10:44:11.210Z,27.24
2017-10-02T10:46:37.426Z,26.86
2017-10-02T10:49:04.147Z,25.89
2017-10-02T10:51:30.318Z,23.96
2017-10-02T10:53:56.538Z,27.21
2017-10-02T10:56:22.702Z,24.39
2017-10-02T10:58:48.877Z,22.85
2017-10-02T11:01:15.078Z,23.35
2017-10-02T11:03:41.252Z,22.87
2017-10-02T11:06:07.437Z,21.88
2017-10-02T11:08:33.642Z,23.95
2017-10-02T11:10:59.829Z,24.40
2017-10-02T11:13:26.002Z,24.53
2017-10-02T11:15:52.376Z,24.83
2017-10-02T11:18:18.557Z,23.87
2017-10-02T11:20:44.739Z,22.30
2017-10-02T11:23:10.960Z,22.77
2017-10-02T11:25:37.138Z,21.92
2017-10-02T11:28:03.332Z,22.92
2017-10-02T11:30:29.565Z,22.53
2017-10-02T11:32:55.737Z,21.65
2017-10-02T11:35:22.010Z,21.50
2017-10-02T11:37:48.205Z,23.41
2017-10-02T11:40:14.394Z,25.28
2017-10-02T11:42:40.580Z,25.24
2017-10-02T11:45:06.806Z,26.14
2017-10-02T11:47:32.979Z,25.60
2017-10-02T11:49:59.165Z,22.78
2017-10-02T11:52:25.382Z,22.24
2017-10-02T11:54:51.558Z,23.44
2017-10-02T11:57:17.726Z,23.17
2017-10-02T11:59:43.939Z,22.11
2017-10-02T12:02:10.128Z,21.47
2017-10-02T12:04:36.321Z,21.24
2017-10-02T12:07:02.526Z,22.39
2017-10-02T12:09:28.720Z,22.69
2017-10-02T12:11:55.024Z,22.44
2017-10-02T12:14:21.230Z,22.51
2017-10-02T12:16:47.416Z,24.25
2017-10-02T12:19:13.586Z,23.84
2017-10-02T12:21:40.137Z,26.37
2017-10-02T12:24:06.332Z,23.40
2017-10-02T12:26:32.515Z,23.46
2017-10-02T12:28:58.817Z,22.20
2017-10-02T12:31:24.998Z,25.33
2017-10-02T12:33:51.180Z,25.28
2017-10-02T12:36:17.415Z,24.07
2017-10-02T12:38:43.608Z,22.13
2017-10-02T12:41:09.965Z,21.30
2017-10-02T12:43:36.207Z,21.80
2017-10-02T12:46:02.421Z,21.16
2017-10-02T12:48:28.591Z,19.03
2017-10-02T12:50:54.812Z,19.53
2017-10-02T12:53:20.987Z,21.05
2017-10-02T12:55:47.170Z,20.46
2017-10-02T12:58:13.401Z,21.09
2017-10-02T13:00:39.683Z,20.36
2017-10-02T13:03:05.868Z,21.86
2017-10-02T13:05:32.072Z,22.90
2017-10-02T13:07:58.242Z,22.35
2017-10-02T13:10:24.619Z,23.55
2017-10-02T13:12:50.852Z,22.47
2017-10-02T13:15:17.045Z,23.52
2017-10-02T13:17:43.243Z,22.16
2017-10-02T13:20:09.511Z,24.38
2017-10-02T13:22:35.695Z,24.61
2017-10-02T13:25:01.862Z,25.44
2017-10-02T13:27:28.070Z,24.04
2017-10-02T13:29:54.385Z,27.31
2017-10-02T13:32:20.553Z,27.38
2017-10-02T13:34:46.771Z,30.31
2017-10-02T13:37:12.942Z,30.61
2017-10-02T13:39:39.106Z,31.90
2017-10-02T13:42:05.373Z,32.06
2017-10-02T13:44:31.539Z,31.69
2017-10-02T13:46:57.828Z,32.70
2017-10-02T13:49:24.069Z,32.03
2017-10-02T13:51:50.279Z,32.22
2017-10-02T13:54:16.472Z,33.06
2017-10-02T13:56:42.715Z,32.75
2017-10-02T13:59:08.884Z,33.36
2017-10-02T14:01:35.069Z,35.54
2017-10-02T14:04:01.299Z,36.37
2017-10-02T14:06:27.700Z,38.27
2017-10-02T14:08:54.060Z,35.74
2017-10-02T14:11:20.295Z,37.74
2017-10-02T14:13:46.473Z,39.80
2017-10-02T14:16:12.782Z,37.87
2017-10-02T14:18:39.012Z,38.01
2017-10-02T14:21:05.190Z,36.58
2017-10-02T14:23:31.363Z,38.68
2017-10-02T14:25:57.573Z,40.74
2017-10-02T14:28:23.938Z,39.53
2017-10-02T14:30:50.114Z,39.89
2017-10-02T14:33:16.337Z,41.75
2017-10-02T14:35:42.527Z,39.59
2017-10-02T14:38:08.737Z,41.57
2017-10-02T14:40:35.064Z,41.91
2017-10-02T14:43:01.243Z,41.97
2017-10-02T14:45:27.419Z,42.00
2017-10-02T14:47:53.614Z,42.52
2017-10-02T14:50:19.784Z,41.85
2017-10-02T14:52:45.966Z,42.57
2017-10-02T14:55:12.219Z,43.47
2017-10-02T14:57:38.396Z,44.07
2017-10-02T15:00:04.991Z,44.54
2017-10-02T15:02:31.239Z,45.13
2017-10-02T15:04:57.408Z,45.49
2017-10-02T15:07:23.698Z,47.14
2017-10-02T15:09:49.905Z,48.29
2017-10-02T15:12:16.077Z,48.31
2017-10-02T15:14:42.260Z,50.09
2017-10-02T15:17:08.490Z,53.06
2017-10-02T15:19:34.648Z,54.93
2017-10-02T15:22:00.816Z,55.19
2017-10-02T15:24:27.037Z,55.68
2017-10-02T15:26:53.208Z,56.58
2017-10-02T15:29:19.406Z,57.63
2017-10-02T15:31:45.614Z,59.84
2017-10-02T15:34:11.809Z,60.78
2017-10-02T15:36:38.032Z,62.07
2017-10-02T15:39:04.240Z,61.17
2017-10-02T15:41:30.419Z,61.82
2017-10-02T15:43:56.647Z,62.21
2017-10-02T15:46:22.870Z,64.80
2017-10-02T15:48:49.045Z,62.45
2017-10-02T15:51:15.213Z,61.61
2017-10-02T15:53:41.424Z,63.13
2017-10-02T15:56:07.590Z,64.87
2017-10-02T15:58:33.770Z,67.24
2017-10-02T16:01:00.013Z,69.50
2017-10-02T16:03:26.196Z,72.08
2017-10-02T16:05:52.374Z,72.51
2017-10-02T16:08:18.592Z,74.56
2017-10-02T16:10:44.765Z,74.58
2017-10-02T16:13:10.956Z,76.21
2017-10-02T16:15:37.179Z,77.44
2017-10-02T16:18:03.350Z,78.54
2017-10-02T16:20:29.521Z,79.57
2017-10-02T16:22:55.742Z,79.92
2017-10-02T16:25:21.928Z,79.60
2017-10-02T16:27:48.116Z,79.47
2017-10-02T16:30:14.323Z,78.56
2017-10-02T16:32:40.494Z,81.06
2017-10-02T16:35:06.673Z,80.76
2017-10-02T16:37:32.885Z,81.44
2017-10-02T16:39:59.061Z,79.89
2017-10-02T16:42:25.222Z,77.59
2017-10-02T16:44:51.423Z,80.19
2017-10-02T16:47:17.596Z,82.35
2017-10-02T16:49:43.769Z,80.84
2017-10-02T16:52:09.997Z,81.06
2017-10-02T16:54:36.180Z,82.04
2017-10-02T16:57:02.396Z,82.91
2017-10-02T16:59:28.596Z,82.53
2017-10-02T17:01:54.763Z,84.98
2017-10-02T17:04:20.930Z,84.70
2017-10-02T17:06:47.156Z,82.90
2017-10-02T17:09:13.364Z,78.98
2017-10-02T17:11:39.585Z,83.35
2017-10-02T17:14:05.819Z,84.90
2017-10-02T17:16:32.123Z,85.07
2017-10-02T17:18:58.291Z,85.96
2017-10-02T17:21:24.508Z,86.06
2017-10-02T17:23:50.679Z,85.02
2017-10-02T17:26:16.929Z,86.85
2017-10-02T17:28:43.321Z,87.03
2017-10-02T17:31:09.482Z,87.76
2017-10-02T17:33:35.660Z,88.09
2017-10-02T17:36:01.857Z,88.19
2017-10-02T17:38:28.036Z,87.49
2017-10-02T17:40:54.226Z,86.77
2017-10-02T17:45:52.991Z,87.88
2017-10-02T17:48:19.194Z,88.12
2017-10-02T17:50:45.373Z,87.19
2017-10-02T17:53:11.546Z,86.34
2017-10-02T17:55:37.772Z,87.05
2017-10-02T17:58:03.953Z,87.67
2017-10-02T18:00:30.118Z,88.02
2017-10-02T18:02:56.366Z,88.09
2017-10-02T18:05:22.552Z,88.52
2017-10-02T18:07:48.746Z,89.43
2017-10-02T18:10:15.044Z,89.52
2017-10-02T18:12:41.227Z,89.01
2017-10-02T18:15:07.535Z,89.55
2017-10-02T18:17:33.742Z,89.62
2017-10-02T18:19:59.911Z,90.30
2017-10-02T18:22:26.089Z,90.26
2017-10-02T18:24:52.302Z,90.83
2017-10-02T18:27:18.503Z,90.24
2017-10-02T18:29:44.679Z,90.12
2017-10-02T18:32:10.887Z,90.21
2017-10-02T18:34:37.047Z,90.12
2017-10-02T18:37:03.243Z,90.34
2017-10-02T18:39:29.491Z,90.35
2017-10-02T18:41:55.675Z,90.37
2017-10-02T18:44:22.666Z,90.70
2017-10-02T18:46:48.872Z,89.93
2017-10-02T18:49:15.233Z,89.81
2017-10-02T18:51:41.446Z,90.51
2017-10-02T18:54:10.563Z,91.67
2017-10-02T18:56:36.860Z,90.99
2017-10-02T18:59:04.021Z,91.05
2017-10-02T19:01:30.224Z,90.94
2017-10-02T19:03:56.422Z,90.49
2017-10-02T19:06:22.715Z,91.07
2017-10-02T19:08:48.904Z,91.30
2017-10-02T19:13:50.098Z,92.41
2017-10-02T19:16:16.268Z,92.65
2017-10-02T19:18:42.457Z,92.41
2017-10-02T19:21:08.643Z,92.27
2017-10-02T19:23:35.034Z,91.92
2017-10-02T19:26:01.239Z,91.69
2017-10-02T19:28:27.473Z,94.01
2017-10-02T19:30:53.650Z,92.08
2017-10-02T19:33:19.855Z,92.23
2017-10-02T19:35:46.056Z,91.34
2017-10-02T19:38:12.247Z,90.01
2017-10-02T19:40:38.490Z,90.84
2017-10-02T19:43:04.652Z,90.16
2017-10-02T19:45:30.832Z,91.00
2017-10-02T19:47:57.112Z,91.13
2017-10-02T19:50:23.350Z,90.33
2017-10-02T19:52:49.520Z,90.21
2017-10-02T19:55:15.747Z,88.65
2017-10-02T19:57:41.941Z,88.59
2017-10-02T20:00:08.122Z,88.77
2017-10-02T20:02:34.489Z,89.18
2017-10-02T20:05:00.697Z,89.76
2017-10-02T20:07:26.918Z,89.68
2017-10-02T20:09:53.131Z,89.58
2017-10-02T20:12:19.311Z,89.64
2017-10-02T20:14:45.489Z,89.84
2017-10-02T20:17:11.680Z,90.87
2017-10-02T20:19:37.875Z,89.90
2017-10-02T20:22:04.227Z,89.30
2017-10-02T20:24:30.420Z,89.55
2017-10-02T20:26:57.354Z,90.51
2017-10-02T20:29:23.593Z,89.98
2017-10-02T20:31:49.962Z,89.31
2017-10-02T20:34:16.150Z,90.22
2017-10-02T20:36:43.496Z,89.97
2017-10-02T20:39:09.670Z,90.09
2017-10-02T20:41:35.843Z,90.10
2017-10-02T20:44:02.037Z,91.00
2017-10-02T20:46:28.274Z,90.42
2017-10-02T20:48:54.449Z,90.04
2017-10-02T20:51:20.675Z,89.94
2017-10-02T20:53:53.460Z,89.42
2017-10-02T20:56:19.636Z,89.79
2017-10-02T20:58:45.864Z,89.92
2017-10-02T21:01:13.388Z,89.92
2017-10-02T21:03:39.597Z,90.54
2017-10-02T21:06:05.825Z,90.60
2017-10-02T21:08:32.015Z,90.55
2017-10-02T21:10:58.217Z,90.55
2017-10-02T21:13:24.441Z,90.37
2017-10-02T21:15:50.627Z,90.95
2017-10-02T21:18:16.826Z,91.15
2017-10-02T21:20:43.062Z,91.87
2017-10-02T21:25:53.667Z,91.61
2017-10-02T21:28:19.944Z,91.54
2017-10-02T21:30:46.140Z,91.53
2017-10-02T21:33:12.370Z,91.69
2017-10-02T21:35:38.553Z,90.99
2017-10-02T21:38:04.750Z,90.57
2017-10-02T21:40:30.967Z,90.93
2017-10-02T21:42:57.166Z,90.61
2017-10-02T21:45:23.371Z,91.35
2017-10-02T21:47:50.551Z,91.32
2017-10-02T21:50:16.764Z,90.33
2017-10-02T21:52:42.955Z,90.47
2017-10-02T21:55:09.183Z,91.01
2017-10-02T21:57:35.368Z,90.58
2017-10-02T22:00:01.566Z,90.70
2017-10-02T22:02:27.807Z,91.07
2017-10-02T22:04:54.000Z,90.73
2017-10-02T22:07:20.183Z,91.03
2017-10-02T22:09:46.393Z,91.46
2017-10-02T22:12:12.569Z,91.29
2017-10-02T22:14:38.739Z,91.36
2017-10-02T22:17:04.958Z,91.58
2017-10-02T22:19:31.146Z,92.27
2017-10-02T22:21:57.356Z,92.47
2017-10-02T22:24:23.597Z,90.97
2017-10-02T22:26:49.790Z,91.37
2017-10-02T22:29:15.976Z,91.89
2017-10-02T22:31:42.237Z,92.22
2017-10-02T22:34:08.431Z,91.82
2017-10-02T22:36:34.624Z,91.22
2017-10-02T22:39:00.867Z,91.16
2017-10-02T22:41:27.060Z,91.10
2017-10-02T22:43:53.241Z,90.68
2017-10-02T22:46:19.477Z,90.47
2017-10-02T22:48:45.667Z,90.46
2017-10-02T22:51:11.851Z,90.61
2017-10-02T22:53:38.080Z,90.78
2017-10-02T22:56:04.259Z,90.90
2017-10-02T22:58:30.457Z,91.06
2017-10-02T23:00:56.709Z,91.06
2017-10-02T23:03:22.893Z,90.68
2017-10-02T23:05:49.078Z,91.17
2017-10-02T23:08:15.307Z,90.91
2017-10-02T23:10:41.509Z,91.14
2017-10-02T23:13:07.702Z,90.87
2017-10-02T23:15:33.940Z,90.48
2017-10-02T23:18:00.128Z,90.98
2017-10-02T23:20:26.322Z,90.84
2017-10-02T23:22:52.555Z,91.13
2017-10-02T23:25:18.742Z,91.34
2017-10-02T23:27:44.940Z,91.29
2017-10-02T23:30:11.186Z,91.28
2017-10-02T23:32:37.394Z,91.59
2017-10-02T23:35:03.594Z,90.79
2017-10-02T23:37:29.822Z,90.09
2017-10-02T23:39:56.008Z,90.39
2017-10-02T23:42:22.196Z,89.83
2017-10-02T23:44:48.414Z,90.38
2017-10-02T23:47:14.613Z,91.50
2017-10-02T23:49:40.786Z,91.03
2017-10-02T23:52:07.003Z,90.04
2017-10-02T23:54:33.219Z,89.82
2017-10-02T23:56:59.402Z,90.15
2017-10-02T23:59:25.630Z,90.19
